createdAt,value
2022-12-04T00:00:46.271Z,0.30
2022-12-04T00:03:12.959Z,0.10
2022-12-04T00:05:39.693Z,0.20
2022-12-04T00:08:06.410Z,0.30
2022-12-04T00:10:33.165Z,0.30
2022-12-04T00:12:59.854Z,0.40
2022-12-04T00:15:27.073Z,0.50
2022-12-04T00:17:54.188Z,0.60
2022-12-04T00:20:21.092Z,0.50
2022-12-04T00:22:47.703Z,0.40
2022-12-04T00:25:14.374Z,0.40
2022-12-04T00:27:40.973Z,0.30
2022-12-04T00:30:08.228Z,0.40
2022-12-04T00:32:34.841Z,0.40
2022-12-04T00:35:01.468Z,0.10
2022-12-04T00:37:28.226Z,0.40
2022-12-04T00:39:55.122Z,0.20
2022-12-04T00:42:21.930Z,0.50
2022-12-04T00:44:48.631Z,0.30
2022-12-04T00:47:15.231Z,0.10
2022-12-04T00:49:41.889Z,0.10
2022-12-04T00:52:08.488Z,0.20
2022-12-04T00:54:35.110Z,0.60
2022-12-04T00:57:01.735Z,0.50
2022-12-04T00:59:28.366Z,0.20
2022-12-04T01:01:55.030Z,0.50
2022-12-04T01:04:21.647Z,0.80
2022-12-04T01:06:48.286Z,0.60
2022-12-04T01:09:14.907Z,0.40
2022-12-04T01:11:41.607Z,0.40
2022-12-04T01:14:08.292Z,0.70
2022-12-04T01:16:37.496Z,0.40
2022-12-04T01:19:10.554Z,0.50
2022-12-04T01:21:37.571Z,0.30
2022-12-04T01:24:04.650Z,0.40
2022-12-04T01:26:31.694Z,0.50
2022-12-04T01:28:58.414Z,0.70
2022-12-04T01:31:25.120Z,0.60
2022-12-04T01:33:51.795Z,0.50
2022-12-04T01:36:25.784Z,0.30
2022-12-04T01:38:52.593Z,0.20
2022-12-04T01:41:21.686Z,0.50
2022-12-04T01:44:07.074Z,0.60
2022-12-04T01:46:33.723Z,0.60
2022-12-04T01:49:00.348Z,0.60
2022-12-04T01:51:29.134Z,0.70
2022-12-04T01:54:07.408Z,0.70
2022-12-04T01:56:54.142Z,0.50
2022-12-04T01:59:24.190Z,0.50
2022-12-04T02:01:57.071Z,0.40
2022-12-04T02:04:24.093Z,0.60
2022-12-04T02:06:50.972Z,0.80
2022-12-04T02:09:23.003Z,0.60
2022-12-04T02:12:06.246Z,0.40
2022-12-04T02:14:37.386Z,0.30
2022-12-04T02:17:08.893Z,0.50
2022-12-04T02:19:54.453Z,0.50
2022-12-04T02:22:31.414Z,0.30
2022-12-04T02:25:01.508Z,0.20
2022-12-04T02:27:42.953Z,0.40
2022-12-04T02:30:14.234Z,0.40
2022-12-04T02:32:43.527Z,0.20
2022-12-04T02:35:13.135Z,0.60
2022-12-04T02:37:43.637Z,0.30
2022-12-04T02:40:13.459Z,0.40
2022-12-04T02:42:45.262Z,0.60
2022-12-04T02:45:13.637Z,0.10
2022-12-04T02:47:41.754Z,0.10
2022-12-04T02:50:10.643Z,0.50
2022-12-04T02:52:44.106Z,0.40
2022-12-04T02:55:17.735Z,0.60
2022-12-04T02:57:46.929Z,0.20
2022-12-04T03:00:13.952Z,0.40
2022-12-04T03:02:43.705Z,0.30
2022-12-04T03:05:12.829Z,0.50
2022-12-04T03:07:51.565Z,0.40
2022-12-04T03:10:25.048Z,0.50
2022-12-04T03:13:12.874Z,0.30
2022-12-04T03:15:48.458Z,0.30
2022-12-04T03:18:18.330Z,0.30
2022-12-04T03:20:47.327Z,0.00
2022-12-04T03:23:20.369Z,0.00
2022-12-04T03:25:58.629Z,0.40
2022-12-04T03:28:37.459Z,0.10
2022-12-04T03:31:06.497Z,0.50
2022-12-04T03:33:43.375Z,0.40
2022-12-04T03:36:13.964Z,0.30
2022-12-04T03:38:53.823Z,0.10
2022-12-04T03:41:31.127Z,0.10
2022-12-04T03:44:04.045Z,0.10
2022-12-04T03:46:41.659Z,0.20
2022-12-04T03:49:22.892Z,0.20
2022-12-04T03:52:00.236Z,0.40
2022-12-04T03:54:32.276Z,0.20
2022-12-04T03:57:01.916Z,0.20
2022-12-04T03:59:30.231Z,0.60
2022-12-04T04:02:00.237Z,0.70
2022-12-04T04:04:35.051Z,0.80
2022-12-04T04:07:04.801Z,0.70
2022-12-04T04:09:33.918Z,0.80
2022-12-04T04:12:08.702Z,0.70
2022-12-04T04:14:57.752Z,0.60
2022-12-04T04:17:46.800Z,0.70
2022-12-04T04:20:35.316Z,0.60
2022-12-04T04:23:21.698Z,0.90
2022-12-04T04:25:48.693Z,0.70
2022-12-04T04:28:28.840Z,0.70
2022-12-04T04:30:57.471Z,0.50
2022-12-04T04:33:24.276Z,0.30
2022-12-04T04:35:59.635Z,0.30
2022-12-04T04:38:28.221Z,0.40
2022-12-04T04:41:13.666Z,0.50
2022-12-04T04:43:44.639Z,0.40
2022-12-04T04:46:13.193Z,0.60
2022-12-04T04:48:45.866Z,0.80
2022-12-04T04:51:12.896Z,0.90
2022-12-04T04:53:41.769Z,0.50
2022-12-04T04:56:08.836Z,0.50
2022-12-04T04:58:35.517Z,0.60
2022-12-04T05:01:03.767Z,0.80
2022-12-04T05:03:30.852Z,0.80
2022-12-04T05:05:57.705Z,0.70
2022-12-04T05:08:24.489Z,0.80
2022-12-04T05:10:51.180Z,0.50
2022-12-04T05:13:18.374Z,0.30
2022-12-04T05:15:45.087Z,0.30
2022-12-04T05:18:11.781Z,0.70
2022-12-04T05:20:38.670Z,0.50
2022-12-04T05:23:05.366Z,0.60
2022-12-04T05:25:31.998Z,1.00
2022-12-04T05:27:58.635Z,0.70
2022-12-04T05:30:25.240Z,0.90
2022-12-04T05:32:51.891Z,0.90
2022-12-04T05:35:18.545Z,0.90
2022-12-04T05:37:45.575Z,0.90
2022-12-04T05:40:12.316Z,0.60
2022-12-04T05:42:38.954Z,0.70
2022-12-04T05:45:05.804Z,0.90
2022-12-04T05:47:32.390Z,1.10
2022-12-04T05:49:59.078Z,1.30
2022-12-04T05:52:25.712Z,1.20
2022-12-04T05:54:52.330Z,1.00
2022-12-04T05:57:18.952Z,0.90
2022-12-04T05:59:45.575Z,0.70
2022-12-04T06:02:12.270Z,0.80
2022-12-04T06:04:39.077Z,0.80
2022-12-04T06:07:05.707Z,0.70
2022-12-04T06:09:32.430Z,1.10
2022-12-04T06:11:59.171Z,1.10
2022-12-04T06:14:25.961Z,1.20
2022-12-04T06:16:52.830Z,1.00
2022-12-04T06:19:20.461Z,0.90
2022-12-04T06:21:48.020Z,0.90
2022-12-04T06:24:16.520Z,0.80
2022-12-04T06:27:03.916Z,0.80
2022-12-04T06:29:30.172Z,0.90
2022-12-04T06:31:56.846Z,1.00
2022-12-04T06:34:23.522Z,1.20
2022-12-04T06:36:50.130Z,1.00
2022-12-04T06:39:18.872Z,0.60
2022-12-04T06:41:47.325Z,0.60
2022-12-04T06:44:14.800Z,0.70
2022-12-04T06:46:46.535Z,1.00
2022-12-04T06:49:14.155Z,0.80
2022-12-04T06:51:41.012Z,0.70
2022-12-04T06:54:08.926Z,0.80
2022-12-04T06:56:35.843Z,0.90
2022-12-04T06:59:03.619Z,0.70
2022-12-04T07:01:31.183Z,0.60
2022-12-04T07:03:58.241Z,0.60
2022-12-04T07:06:24.830Z,0.70
2022-12-04T07:08:53.044Z,0.70
2022-12-04T07:11:20.238Z,0.50
2022-12-04T07:13:47.287Z,0.50
2022-12-04T07:16:15.308Z,0.30
2022-12-04T07:18:41.977Z,0.60
2022-12-04T07:21:10.565Z,0.90
2022-12-04T07:23:37.183Z,0.90
2022-12-04T07:26:05.048Z,0.60
2022-12-04T07:28:31.782Z,0.80
2022-12-04T07:30:58.586Z,1.00
2022-12-04T07:33:25.202Z,0.60
2022-12-04T07:35:56.179Z,0.30
2022-12-04T07:38:22.787Z,0.10
2022-12-04T07:40:49.440Z,0.20
2022-12-04T07:43:16.067Z,0.20
2022-12-04T07:45:42.754Z,0.40
2022-12-04T07:48:09.643Z,0.60
2022-12-04T07:50:36.328Z,0.50
2022-12-04T07:53:02.965Z,0.60
2022-12-04T07:55:29.601Z,0.50
2022-12-04T07:57:56.283Z,0.70
2022-12-04T08:00:22.945Z,0.60
2022-12-04T08:02:49.922Z,0.50
2022-12-04T08:05:16.831Z,0.50
2022-12-04T08:07:43.538Z,0.50
2022-12-04T08:10:10.367Z,0.70
2022-12-04T08:12:37.072Z,0.90
2022-12-04T08:15:03.960Z,0.80
2022-12-04T08:17:30.732Z,0.80
2022-12-04T08:19:57.631Z,0.80
2022-12-04T08:22:25.409Z,0.70
2022-12-04T08:24:52.204Z,1.00
2022-12-04T08:27:18.800Z,1.00
2022-12-04T08:29:45.438Z,0.90
2022-12-04T08:32:12.159Z,1.20
2022-12-04T08:34:38.761Z,1.00
2022-12-04T08:37:05.477Z,1.10
2022-12-04T08:39:32.215Z,1.30
2022-12-04T08:41:58.869Z,1.40
2022-12-04T08:44:25.582Z,1.20
2022-12-04T08:46:52.262Z,1.40
2022-12-04T08:49:19.044Z,1.40
2022-12-04T08:51:45.674Z,1.60
2022-12-04T08:54:12.788Z,1.30
2022-12-04T08:56:39.437Z,1.20
2022-12-04T08:59:06.177Z,1.40
2022-12-04T09:01:32.920Z,1.40
2022-12-04T09:03:59.740Z,1.50
2022-12-04T09:06:26.551Z,1.00
2022-12-04T09:08:54.801Z,1.30
2022-12-04T09:11:22.321Z,1.20
2022-12-04T09:13:49.224Z,1.40
2022-12-04T09:16:17.533Z,1.30
2022-12-04T09:18:44.541Z,1.60
2022-12-04T09:21:12.576Z,1.40
2022-12-04T09:23:39.677Z,1.40
2022-12-04T09:26:07.241Z,1.30
2022-12-04T09:28:33.858Z,1.30
2022-12-04T09:31:02.381Z,1.40
2022-12-04T09:33:30.471Z,1.20
2022-12-04T09:36:00.816Z,1.30
2022-12-04T09:38:28.059Z,1.60
2022-12-04T09:41:13.011Z,1.40
2022-12-04T09:43:57.828Z,1.60
2022-12-04T09:46:51.389Z,1.50
2022-12-04T09:49:39.352Z,1.40
2022-12-04T09:52:17.477Z,1.20
2022-12-04T09:54:49.059Z,1.50
2022-12-04T09:57:17.242Z,1.50
2022-12-04T09:59:45.240Z,1.40
2022-12-04T10:02:24.406Z,1.40
2022-12-04T10:04:51.123Z,1.40
2022-12-04T10:07:25.102Z,1.60
2022-12-04T10:09:51.762Z,1.80
2022-12-04T10:12:18.358Z,2.20
2022-12-04T10:14:57.180Z,2.30
2022-12-04T10:17:47.458Z,2.60
2022-12-04T10:20:25.694Z,2.30
2022-12-04T10:23:03.765Z,2.20
2022-12-04T10:25:31.962Z,1.90
2022-12-04T10:28:17.487Z,2.00
2022-12-04T10:30:45.291Z,2.00
2022-12-04T10:33:24.178Z,2.00
2022-12-04T10:35:52.589Z,2.00
2022-12-04T10:38:31.627Z,2.30
2022-12-04T10:41:00.303Z,2.30
2022-12-04T10:43:26.906Z,2.40
2022-12-04T10:45:53.592Z,2.10
2022-12-04T10:48:22.862Z,2.10
2022-12-04T10:50:49.895Z,2.30
2022-12-04T10:53:16.694Z,2.40
2022-12-04T10:55:43.315Z,1.90
2022-12-04T10:58:17.651Z,2.00
2022-12-04T11:00:45.783Z,2.00
2022-12-04T11:03:25.760Z,2.20
2022-12-04T11:05:56.944Z,2.30
2022-12-04T11:08:25.449Z,2.30
2022-12-04T11:10:57.078Z,2.20
2022-12-04T11:13:24.409Z,2.60
2022-12-04T11:15:52.348Z,2.50
2022-12-04T11:18:22.006Z,2.50
2022-12-04T11:20:50.268Z,2.30
2022-12-04T11:23:17.509Z,2.20
2022-12-04T11:25:45.908Z,1.90
2022-12-04T11:28:33.780Z,2.10
2022-12-04T11:31:05.114Z,2.10
2022-12-04T11:33:34.658Z,2.00
2022-12-04T11:36:03.367Z,2.00
2022-12-04T11:38:31.941Z,2.00
2022-12-04T11:40:58.760Z,1.90
2022-12-04T11:43:26.460Z,2.30
2022-12-04T11:46:00.322Z,2.40
2022-12-04T11:48:28.683Z,2.30
2022-12-04T11:51:07.449Z,2.40
2022-12-04T11:53:50.427Z,2.30
2022-12-04T11:56:19.985Z,2.30
2022-12-04T11:59:07.676Z,2.20
2022-12-04T12:01:46.562Z,2.40
2022-12-04T12:04:31.705Z,2.50
2022-12-04T12:07:07.429Z,2.60
2022-12-04T12:09:41.832Z,2.60
2022-12-04T12:12:08.446Z,2.70
2022-12-04T12:14:41.644Z,2.60
2022-12-04T12:17:13.185Z,2.60
2022-12-04T12:23:45.408Z,2.50
2022-12-04T12:26:13.793Z,2.60
2022-12-04T12:28:58.935Z,2.30
2022-12-04T12:31:44.522Z,2.40
2022-12-04T12:34:14.700Z,2.50
2022-12-04T12:36:44.089Z,2.70
2022-12-04T12:39:23.061Z,2.70
2022-12-04T12:41:54.047Z,2.70
2022-12-04T12:44:39.221Z,2.60
2022-12-04T12:47:08.495Z,2.60
2022-12-04T12:49:39.778Z,2.30
2022-12-04T12:52:12.863Z,2.30
2022-12-04T12:54:39.462Z,2.40
2022-12-04T12:57:10.281Z,2.40
2022-12-04T12:59:38.679Z,2.50
2022-12-04T13:02:07.801Z,2.70
2022-12-04T13:04:37.212Z,2.70
2022-12-04T13:07:10.076Z,2.50
2022-12-04T13:09:37.530Z,2.70
2022-12-04T13:12:08.865Z,2.70
2022-12-04T13:14:35.524Z,2.60
2022-12-04T13:17:04.147Z,2.60
2022-12-04T13:19:44.148Z,2.60
2022-12-04T13:22:22.118Z,2.60
2022-12-04T13:25:07.425Z,2.70
2022-12-04T13:27:51.612Z,2.90
2022-12-04T13:30:21.402Z,2.80
2022-12-04T13:32:57.428Z,2.90
2022-12-04T13:35:36.493Z,3.00
2022-12-04T13:38:12.260Z,3.00
2022-12-04T13:40:39.623Z,2.80
2022-12-04T13:43:27.494Z,2.80
2022-12-04T13:45:55.508Z,3.00
2022-12-04T13:48:30.109Z,2.70
2022-12-04T13:51:02.998Z,2.90
2022-12-04T13:53:37.135Z,2.70
2022-12-04T13:56:08.689Z,2.70
2022-12-04T13:58:37.510Z,2.70
2022-12-04T14:01:04.220Z,2.70
2022-12-04T14:03:50.394Z,2.90
2022-12-04T14:06:21.859Z,2.80
2022-12-04T14:08:54.403Z,2.90
2022-12-04T14:11:21.079Z,2.90
2022-12-04T14:13:49.328Z,3.00
2022-12-04T14:16:22.727Z,3.00
2022-12-04T14:18:50.944Z,3.20
2022-12-04T14:21:17.657Z,3.10
2022-12-04T14:23:44.423Z,3.00
2022-12-04T14:26:48.914Z,3.00
2022-12-04T14:29:35.095Z,2.70
2022-12-04T14:32:07.900Z,2.80
2022-12-04T14:34:35.589Z,2.90
2022-12-04T14:37:02.646Z,2.70
2022-12-04T14:39:32.259Z,2.60
2022-12-04T14:42:06.598Z,2.60
2022-12-04T14:44:33.293Z,2.60
2022-12-04T14:47:08.416Z,2.60
2022-12-04T14:49:37.607Z,2.70
2022-12-04T14:52:17.340Z,2.70
2022-12-04T14:54:46.972Z,2.70
2022-12-04T14:57:17.173Z,2.60
2022-12-04T14:59:46.846Z,2.70
2022-12-04T15:02:33.732Z,2.60
2022-12-04T15:05:01.519Z,2.80
2022-12-04T15:07:30.787Z,2.70
2022-12-04T15:10:20.351Z,2.70
2022-12-04T15:12:51.932Z,2.70
2022-12-04T15:15:22.073Z,2.50
2022-12-04T15:17:56.156Z,2.60
2022-12-04T15:20:23.149Z,2.60
2022-12-04T15:22:49.952Z,2.80
2022-12-04T15:25:18.683Z,2.80
2022-12-04T15:27:46.248Z,2.60
2022-12-04T15:30:17.277Z,2.50
2022-12-04T15:32:44.196Z,2.40
2022-12-04T15:35:16.243Z,2.40
2022-12-04T15:37:42.858Z,2.30
2022-12-04T15:40:18.513Z,2.40
2022-12-04T15:42:45.132Z,2.50
2022-12-04T15:45:12.619Z,2.50
2022-12-04T15:47:42.301Z,2.50
2022-12-04T15:50:08.930Z,2.20
2022-12-04T15:52:36.130Z,2.30
2022-12-04T15:55:07.176Z,2.30
2022-12-04T15:57:33.760Z,2.20
2022-12-04T16:00:02.877Z,2.30
2022-12-04T16:02:32.655Z,2.20
2022-12-04T16:05:10.018Z,2.20
2022-12-04T16:07:36.709Z,2.20
2022-12-04T16:10:04.455Z,2.20
2022-12-04T16:12:31.788Z,2.10
2022-12-04T16:14:58.726Z,2.10
2022-12-04T16:17:30.420Z,2.20
2022-12-04T16:19:57.359Z,2.20
2022-12-04T16:22:24.638Z,2.10
2022-12-04T16:24:51.252Z,2.30
2022-12-04T16:27:20.161Z,2.40
2022-12-04T16:29:46.738Z,2.30
2022-12-04T16:32:14.777Z,2.20
2022-12-04T16:34:41.417Z,2.00
2022-12-04T16:37:12.545Z,2.00
2022-12-04T16:39:41.447Z,2.10
2022-12-04T16:42:19.634Z,2.00
2022-12-04T16:44:46.561Z,2.00
2022-12-04T16:47:13.836Z,2.20
2022-12-04T16:49:41.092Z,2.20
2022-12-04T16:52:08.241Z,2.20
2022-12-04T16:54:34.852Z,2.20
2022-12-04T16:57:01.654Z,2.30
2022-12-04T16:59:29.479Z,2.20
2022-12-04T17:01:56.243Z,2.10
2022-12-04T17:04:23.022Z,2.20
2022-12-04T17:06:49.935Z,2.10
2022-12-04T17:09:16.562Z,2.00
2022-12-04T17:11:43.363Z,2.30
2022-12-04T17:14:10.531Z,2.40
2022-12-04T17:16:38.251Z,2.10
2022-12-04T17:19:04.971Z,2.20
2022-12-04T17:21:31.588Z,2.30
2022-12-04T17:23:58.199Z,2.40
2022-12-04T17:26:24.860Z,2.20
2022-12-04T17:28:51.876Z,2.30
2022-12-04T17:31:20.999Z,2.30
2022-12-04T17:33:47.664Z,2.50
2022-12-04T17:36:15.927Z,2.40
2022-12-04T17:38:43.049Z,2.40
2022-12-04T17:41:10.606Z,2.40
2022-12-04T17:43:37.210Z,2.30
2022-12-04T17:46:08.358Z,2.40
2022-12-04T17:48:34.975Z,2.50
2022-12-04T17:51:12.503Z,2.40
2022-12-04T17:53:39.691Z,2.50
2022-12-04T17:56:07.990Z,2.50
2022-12-04T17:58:35.009Z,2.30
2022-12-04T18:01:06.286Z,2.30
2022-12-04T18:03:33.238Z,2.30
2022-12-04T18:06:00.799Z,2.40
2022-12-04T18:08:29.473Z,2.30
2022-12-04T18:10:57.066Z,2.20
2022-12-04T18:13:23.976Z,2.40
2022-12-04T18:15:50.621Z,2.40
2022-12-04T18:18:17.290Z,2.50
2022-12-04T18:20:43.935Z,2.50
2022-12-04T18:23:10.571Z,2.50
2022-12-04T18:25:37.212Z,2.40
2022-12-04T18:28:03.858Z,2.30
2022-12-04T18:30:30.454Z,2.60
2022-12-04T18:32:58.336Z,2.40
2022-12-04T18:35:24.943Z,2.30
2022-12-04T18:37:51.624Z,2.30
2022-12-04T18:40:18.242Z,2.20
2022-12-04T18:42:44.855Z,2.40
2022-12-04T18:45:11.545Z,2.40
2022-12-04T18:47:38.230Z,2.20
2022-12-04T18:50:05.133Z,2.40
2022-12-04T18:52:34.402Z,2.30
2022-12-04T18:55:01.025Z,2.40
2022-12-04T18:57:27.617Z,2.30
2022-12-04T18:59:54.850Z,2.30
2022-12-04T19:02:21.772Z,2.30
2022-12-04T19:04:48.446Z,2.20
2022-12-04T19:07:15.174Z,2.30
2022-12-04T19:10:09.960Z,2.20
2022-12-04T19:12:28.382Z,2.20
2022-12-04T19:14:55.009Z,2.20
2022-12-04T19:17:22.445Z,2.30
2022-12-04T19:19:49.060Z,2.10
2022-12-04T19:22:15.701Z,2.20
2022-12-04T19:24:42.605Z,2.10
2022-12-04T19:27:12.065Z,2.00
2022-12-04T19:29:39.623Z,2.10
2022-12-04T19:32:06.475Z,2.10
2022-12-04T19:34:33.232Z,2.20
2022-12-04T19:36:59.887Z,2.20
2022-12-04T19:39:26.648Z,2.30
2022-12-04T19:41:53.574Z,2.20
2022-12-04T19:47:09.879Z,2.30
2022-12-04T19:49:36.722Z,2.10
2022-12-04T19:52:03.483Z,2.00
2022-12-04T19:54:30.762Z,2.00
2022-12-04T19:56:57.347Z,2.10
2022-12-04T19:59:23.988Z,2.00
2022-12-04T20:01:50.831Z,2.00
2022-12-04T20:04:17.577Z,2.30
2022-12-04T20:06:44.981Z,2.10
2022-12-04T20:09:13.259Z,2.10
2022-12-04T20:11:40.567Z,2.20
2022-12-04T20:14:07.695Z,2.20
2022-12-04T20:16:34.879Z,2.20
2022-12-04T20:19:02.326Z,2.00
2022-12-04T20:21:30.791Z,1.90
2022-12-04T20:23:58.455Z,1.90
2022-12-04T20:26:26.269Z,2.20
2022-12-04T20:28:54.443Z,2.10
2022-12-04T20:31:22.226Z,2.10
2022-12-04T20:33:49.953Z,2.10
2022-12-04T20:36:18.824Z,2.20
2022-12-04T20:38:45.871Z,2.10
2022-12-04T20:41:15.727Z,2.00
2022-12-04T20:43:46.107Z,2.00
2022-12-04T20:46:13.860Z,2.10
2022-12-04T20:48:46.392Z,2.20
2022-12-04T20:51:13.015Z,2.00
2022-12-04T20:53:39.618Z,1.90
2022-12-04T20:56:06.456Z,1.90
2022-12-04T20:58:33.074Z,1.80
2022-12-04T21:01:05.257Z,1.90
2022-12-04T21:03:31.898Z,1.80
2022-12-04T21:05:58.607Z,1.90
2022-12-04T21:08:44.023Z,2.00
2022-12-04T21:11:10.639Z,2.20
2022-12-04T21:13:55.721Z,2.10
2022-12-04T21:16:22.820Z,2.00
2022-12-04T21:18:49.488Z,2.00
2022-12-04T21:21:16.794Z,2.00
2022-12-04T21:23:43.383Z,1.80
2022-12-04T21:26:10.006Z,2.00
2022-12-04T21:28:36.606Z,2.10
2022-12-04T21:31:04.605Z,2.30
2022-12-04T21:33:32.503Z,2.20
2022-12-04T21:36:03.322Z,2.00
2022-12-04T21:38:36.693Z,2.00
2022-12-04T21:41:04.124Z,1.90
2022-12-04T21:43:31.552Z,2.10
2022-12-04T21:45:58.260Z,2.00
2022-12-04T21:48:25.435Z,2.10
2022-12-04T21:50:52.051Z,2.00
2022-12-04T21:53:18.818Z,1.90
2022-12-04T21:55:52.734Z,1.90
2022-12-04T21:58:20.195Z,2.00
2022-12-04T22:00:46.842Z,1.90
2022-12-04T22:03:14.368Z,2.00
2022-12-04T22:05:41.478Z,2.00
2022-12-04T22:08:09.432Z,2.00
2022-12-04T22:10:43.008Z,2.20
2022-12-04T22:13:09.722Z,2.10
2022-12-04T22:15:40.497Z,2.00
2022-12-04T22:18:08.021Z,2.00
2022-12-04T22:20:37.506Z,1.90
2022-12-04T22:23:04.161Z,1.80
2022-12-04T22:25:31.199Z,1.90
2022-12-04T22:27:58.361Z,1.90
2022-12-04T22:30:26.083Z,1.70
2022-12-04T22:32:53.383Z,1.80
2022-12-04T22:35:20.173Z,1.90
2022-12-04T22:37:46.808Z,1.80
2022-12-04T22:40:14.272Z,1.70
2022-12-04T22:42:41.259Z,1.90
2022-12-04T22:45:08.181Z,2.10
2022-12-04T22:47:34.880Z,2.00
2022-12-04T22:50:01.531Z,1.90
2022-12-04T22:52:30.254Z,2.00
2022-12-04T22:54:56.881Z,2.10
2022-12-04T22:57:23.696Z,2.00
2022-12-04T22:59:50.311Z,2.20
2022-12-04T23:02:16.945Z,2.10
2022-12-04T23:04:43.856Z,2.00
2022-12-04T23:07:10.536Z,2.00
2022-12-04T23:09:37.320Z,1.90
2022-12-04T23:12:04.067Z,1.90
2022-12-04T23:14:30.805Z,1.90
2022-12-04T23:16:57.537Z,1.90
2022-12-04T23:19:24.265Z,1.80
2022-12-04T23:21:56.676Z,2.00
2022-12-04T23:24:24.304Z,2.00
2022-12-04T23:26:51.271Z,1.80
2022-12-04T23:29:44.937Z,1.80
2022-12-04T23:32:04.741Z,1.60
2022-12-04T23:34:31.558Z,1.60
2022-12-04T23:36:58.266Z,1.60
2022-12-04T23:39:24.931Z,1.60
2022-12-04T23:41:51.574Z,1.80
2022-12-04T23:44:18.277Z,1.80
2022-12-04T23:46:45.353Z,1.70
2022-12-04T23:49:12.046Z,1.60
2022-12-04T23:51:38.647Z,1.50
2022-12-04T23:54:05.291Z,1.70
2022-12-04T23:56:32.607Z,1.80
2022-12-04T23:58:59.247Z,1.70
